TimeCDT,TemperatureF,Dew PointF,Humidity,Sea Level PressureIn,VisibilityMPH,Wind Direction,Wind SpeedMPH,Gust SpeedMPH,PrecipitationIn,Events,Conditions,WindDirDegrees,DateUTC
12:48 AM,60.8,57.2,88,29.87,7.0,NNW,1.2,-,N/A,,Clear,340,2013-09-22 05:48:00
12:58 AM,61.5,57.6,87,29.88,5.0,North,2.3,-,N/A,,Clear,350,2013-09-22 05:58:00
1:08 AM,60.8,57.2,88,29.87,1.2,North,2.3,-,N/A,,Clear,10,2013-09-22 06:08:00
1:18 AM,59.0,57.2,94,29.87,9.0,North,3.5,-,N/A,,Clear,360,2013-09-22 06:18:00
1:28 AM,59.0,57.2,94,29.87,10.0,North,3.5,-,N/A,,Clear,10,2013-09-22 06:28:00
1:58 AM,58.6,54.9,87,29.88,10.0,North,3.5,-,N/A,,Clear,10,2013-09-22 06:58:00
2:08 AM,59.0,55.4,88,29.87,8.0,North,2.3,-,N/A,,Clear,360,2013-09-22 07:08:00
2:18 AM,59.0,55.4,88,29.87,6.0,North,2.3,-,N/A,,Haze,360,2013-09-22 07:18:00
2:28 AM,59.0,53.6,82,29.88,5.0,North,2.3,-,N/A,,Haze,350,2013-09-22 07:28:00
2:38 AM,59.0,53.6,82,29.87,10.0,North,4.6,-,N/A,,Clear,360,2013-09-22 07:38:00
2:48 AM,59.0,53.6,82,29.87,5.0,North,3.5,-,N/A,,Haze,360,2013-09-22 07:48:00
2:58 AM,58.8,53.6,83,29.88,9.0,North,1.2,-,N/A,,Clear,10,2013-09-22 07:58:00
3:58 AM,57.4,53.1,85,29.88,8.0,North,2.3,-,N/A,,Clear,360,2013-09-22 08:58:00
4:08 AM,57.2,53.6,88,29.87,10.0,North,2.3,-,N/A,,Clear,350,2013-09-22 09:08:00
4:58 AM,55.9,52.5,88,29.88,10.0,North,3.5,-,N/A,,Clear,360,2013-09-22 09:58:00
5:58 AM,55.2,51.8,88,29.89,10.0,North,4.6,-,N/A,,Clear,360,2013-09-22 10:58:00
6:58 AM,54.5,51.8,91,29.90,10.0,North,4.6,-,N/A,,Clear,10,2013-09-22 11:58:00
7:58 AM,57.0,53.2,87,29.91,10.0,North,3.5,-,N/A,,Clear,360,2013-09-22 12:58:00
8:58 AM,61.2,55.0,80,29.93,10.0,Variable,3.5,-,N/A,,Clear,0,2013-09-22 13:58:00
9:58 AM,67.8,55.2,64,29.94,10.0,East,6.9,-,N/A,,Clear,80,2013-09-22 14:58:00
10:58 AM,73.4,53.2,49,29.94,10.0,Variable,6.9,-,N/A,,Clear,0,2013-09-22 15:58:00
11:58 AM,75.9,52.3,44,29.93,10.0,East,9.2,-,N/A,,Clear,100,2013-09-22 16:58:00
12:58 PM,78.8,50.4,37,29.92,10.0,NE,10.4,-,N/A,,Clear,40,2013-09-22 17:58:00
1:58 PM,79.3,49.8,36,29.89,10.0,North,9.2,-,N/A,,Clear,10,2013-09-22 18:58:00
2:58 PM,81.9,48.4,31,29.86,10.0,Variable,5.8,-,N/A,,Clear,0,2013-09-22 19:58:00
3:58 PM,82.4,47.8,30,29.83,10.0,Variable,6.9,-,N/A,,Clear,0,2013-09-22 20:58:00
4:58 PM,82.4,47.7,30,29.82,10.0,NE,8.1,-,N/A,,Clear,50,2013-09-22 21:58:00
5:58 PM,80.4,49.6,34,29.82,10.0,East,4.6,-,N/A,,Clear,80,2013-09-22 22:58:00
6:58 PM,76.3,51.1,41,29.83,10.0,NE,2.3,-,N/A,,Clear,50,2013-09-22 23:58:00
7:58 PM,72.3,52.0,49,29.84,10.0,ENE,3.5,-,N/A,,Clear,60,2013-09-23 00:58:00
8:58 PM,68.4,53.8,60,29.86,10.0,East,3.5,-,N/A,,Clear,90,2013-09-23 01:58:00
9:58 PM,66.4,52.9,62,29.86,10.0,East,2.3,-,N/A,,Clear,90,2013-09-23 02:58:00
10:58 PM,64.4,52.9,66,29.87,10.0,East,3.5,-,N/A,,Clear,90,2013-09-23 03:58:00
11:58 PM,63.5,52.7,68,29.87,10.0,East,3.5,-,N/A,,Clear,90,2013-09-23 04:58:00